sensor_id;sensor_type;location;lat;lon;timestamp;temperature;humidity
16523;DHT22;19889;52.546;13.348;2023-07-02T00:02:14;20.80;99.90
16523;DHT22;19889;52.546;13.348;2023-07-02T00:04:43;20.80;99.90
16523;DHT22;19889;52.546;13.348;2023-07-02T00:07:10;20.80;99.90
16523;DHT22;19889;52.546;13.348;2023-07-02T00:09:37;20.80;99.90
16523;DHT22;19889;52.546;13.348;2023-07-02T00:12:04;20.80;99.90
16523;DHT22;19889;52.546;13.348;2023-07-02T00:14:31;20.80;99.90
16523;DHT22;19889;52.546;13.348;2023-07-02T00:16:59;20.80;99.90
16523;DHT22;19889;52.546;13.348;2023-07-02T00:19:26;20.80;99.90
16523;DHT22;19889;52.546;13.348;2023-07-02T00:21:55;20.80;99.90
16523;DHT22;19889;52.546;13.348;2023-07-02T00:24:23;20.80;99.90
16523;DHT22;19889;52.546;13.348;2023-07-02T00:26:50;20.80;99.90
16523;DHT22;19889;52.546;13.348;2023-07-02T00:29:16;20.80;99.90
16523;DHT22;19889;52.546;13.348;2023-07-02T00:31:44;20.80;99.90
16523;DHT22;19889;52.546;13.348;2023-07-02T00:34:11;20.80;99.90
16523;DHT22;19889;52.546;13.348;2023-07-02T00:36:40;20.70;99.90
16523;DHT22;19889;52.546;13.348;2023-07-02T00:39:09;20.70;99.90
16523;DHT22;19889;52.546;13.348;2023-07-02T00:41:37;20.80;99.90
16523;DHT22;19889;52.546;13.348;2023-07-02T00:44:04;20.70;99.90
16523;DHT22;19889;52.546;13.348;2023-07-02T00:46:31;20.70;99.90
16523;DHT22;19889;52.546;13.348;2023-07-02T00:48:59;20.70;99.90
16523;DHT22;19889;52.546;13.348;2023-07-02T00:51:27;20.70;99.90
16523;DHT22;19889;52.546;13.348;2023-07-02T00:53:55;20.70;99.90
16523;DHT22;19889;52.546;13.348;2023-07-02T00:56:25;20.60;99.90
16523;DHT22;19889;52.546;13.348;2023-07-02T00:58:53;20.60;99.90
16523;DHT22;19889;52.546;13.348;2023-07-02T01:01:25;20.60;99.90
16523;DHT22;19889;52.546;13.348;2023-07-02T01:03:53;20.60;99.90
16523;DHT22;19889;52.546;13.348;2023-07-02T01:06:24;20.50;99.90
16523;DHT22;19889;52.546;13.348;2023-07-02T01:08:56;20.50;99.90
16523;DHT22;19889;52.546;13.348;2023-07-02T01:11:27;20.50;99.90
16523;DHT22;19889;52.546;13.348;2023-07-02T01:13:58;20.50;99.90
16523;DHT22;19889;52.546;13.348;2023-07-02T01:16:26;20.50;99.90
16523;DHT22;19889;52.546;13.348;2023-07-02T01:18:56;20.50;99.90
16523;DHT22;19889;52.546;13.348;2023-07-02T01:21:25;20.50;99.90
16523;DHT22;19889;52.546;13.348;2023-07-02T01:23:53;20.50;99.90
16523;DHT22;19889;52.546;13.348;2023-07-02T01:26:20;20.50;99.90
16523;DHT22;19889;52.546;13.348;2023-07-02T01:28:47;20.50;99.90
16523;DHT22;19889;52.546;13.348;2023-07-02T01:31:15;20.50;99.90
16523;DHT22;19889;52.546;13.348;2023-07-02T01:33:41;20.40;99.90
16523;DHT22;19889;52.546;13.348;2023-07-02T01:36:09;20.40;99.90
16523;DHT22;19889;52.546;13.348;2023-07-02T01:38:37;20.40;99.90
16523;DHT22;19889;52.546;13.348;2023-07-02T01:41:04;20.40;99.90
16523;DHT22;19889;52.546;13.348;2023-07-02T01:43:31;20.40;99.90
16523;DHT22;19889;52.546;13.348;2023-07-02T01:45:58;20.40;99.90
16523;DHT22;19889;52.546;13.348;2023-07-02T01:48:27;20.30;99.90
16523;DHT22;19889;52.546;13.348;2023-07-02T01:51:03;20.30;99.90
16523;DHT22;19889;52.546;13.348;2023-07-02T01:53:30;20.30;99.90
16523;DHT22;19889;52.546;13.348;2023-07-02T01:55:58;20.30;99.90
16523;DHT22;19889;52.546;13.348;2023-07-02T01:58:26;20.30;99.90
16523;DHT22;19889;52.546;13.348;2023-07-02T02:00:53;20.20;99.90
16523;DHT22;19889;52.546;13.348;2023-07-02T02:03:21;20.20;99.90
16523;DHT22;19889;52.546;13.348;2023-07-02T02:05:48;20.20;99.90
16523;DHT22;19889;52.546;13.348;2023-07-02T02:08:17;20.20;99.90
16523;DHT22;19889;52.546;13.348;2023-07-02T02:10:44;20.10;99.90
16523;DHT22;19889;52.546;13.348;2023-07-02T02:13:12;20.20;99.90
16523;DHT22;19889;52.546;13.348;2023-07-02T02:15:39;20.10;99.90
16523;DHT22;19889;52.546;13.348;2023-07-02T02:18:07;20.10;99.90
16523;DHT22;19889;52.546;13.348;2023-07-02T02:20:34;20.10;99.90
16523;DHT22;19889;52.546;13.348;2023-07-02T02:23:01;20.10;99.90
16523;DHT22;19889;52.546;13.348;2023-07-02T02:25:30;20.10;99.90
16523;DHT22;19889;52.546;13.348;2023-07-02T02:27:57;20.10;99.90
16523;DHT22;19889;52.546;13.348;2023-07-02T02:30:26;20.10;99.90
16523;DHT22;19889;52.546;13.348;2023-07-02T02:32:53;20.10;99.90
16523;DHT22;19889;52.546;13.348;2023-07-02T02:35:20;20.00;99.90
16523;DHT22;19889;52.546;13.348;2023-07-02T02:37:49;20.10;99.90
16523;DHT22;19889;52.546;13.348;2023-07-02T02:40:16;20.00;99.90
16523;DHT22;19889;52.546;13.348;2023-07-02T02:42:43;20.00;99.90
16523;DHT22;19889;52.546;13.348;2023-07-02T02:45:10;20.10;99.90
16523;DHT22;19889;52.546;13.348;2023-07-02T02:47:38;20.10;99.90
16523;DHT22;19889;52.546;13.348;2023-07-02T02:50:06;20.10;99.90
16523;DHT22;19889;52.546;13.348;2023-07-02T02:52:35;20.10;99.90
16523;DHT22;19889;52.546;13.348;2023-07-02T02:55:02;20.10;99.90
16523;DHT22;19889;52.546;13.348;2023-07-02T02:57:29;20.00;99.90
16523;DHT22;19889;52.546;13.348;2023-07-02T02:59:56;20.00;99.90
16523;DHT22;19889;52.546;13.348;2023-07-02T03:02:23;20.00;99.90
16523;DHT22;19889;52.546;13.348;2023-07-02T03:04:52;20.00;99.90
16523;DHT22;19889;52.546;13.348;2023-07-02T03:07:19;20.00;99.90
16523;DHT22;19889;52.546;13.348;2023-07-02T03:09:46;20.00;99.90
16523;DHT22;19889;52.546;13.348;2023-07-02T03:12:13;20.00;99.90
16523;DHT22;19889;52.546;13.348;2023-07-02T03:14:40;20.00;99.90
16523;DHT22;19889;52.546;13.348;2023-07-02T03:17:07;20.00;99.90
16523;DHT22;19889;52.546;13.348;2023-07-02T03:19:34;20.00;99.90
16523;DHT22;19889;52.546;13.348;2023-07-02T03:22:03;20.00;99.90
16523;DHT22;19889;52.546;13.348;2023-07-02T03:24:30;20.00;99.90
16523;DHT22;19889;52.546;13.348;2023-07-02T03:26:57;20.00;99.90
16523;DHT22;19889;52.546;13.348;2023-07-02T03:29:24;20.00;99.90
16523;DHT22;19889;52.546;13.348;2023-07-02T03:31:51;20.00;99.90
16523;DHT22;19889;52.546;13.348;2023-07-02T03:34:18;19.90;99.90
16523;DHT22;19889;52.546;13.348;2023-07-02T03:36:46;19.90;99.90
16523;DHT22;19889;52.546;13.348;2023-07-02T03:39:14;19.90;99.90
16523;DHT22;19889;52.546;13.348;2023-07-02T03:41:41;19.90;99.90
16523;DHT22;19889;52.546;13.348;2023-07-02T03:44:08;19.90;99.90
16523;DHT22;19889;52.546;13.348;2023-07-02T03:46:36;19.90;99.90
16523;DHT22;19889;52.546;13.348;2023-07-02T03:49:03;19.90;99.90
16523;DHT22;19889;52.546;13.348;2023-07-02T03:51:30;19.90;99.90
16523;DHT22;19889;52.546;13.348;2023-07-02T03:53:58;19.90;99.90
16523;DHT22;19889;52.546;13.348;2023-07-02T03:56:26;19.90;99.90
16523;DHT22;19889;52.546;13.348;2023-07-02T03:58:53;19.80;99.90
16523;DHT22;19889;52.546;13.348;2023-07-02T04:01:20;19.80;99.90
16523;DHT22;19889;52.546;13.348;2023-07-02T04:03:48;19.80;99.90
16523;DHT22;19889;52.546;13.348;2023-07-02T04:06:15;19.40;99.90
16523;DHT22;19889;52.546;13.348;2023-07-02T04:08:42;19.80;99.90
16523;DHT22;19889;52.546;13.348;2023-07-02T04:11:10;19.80;99.90
16523;DHT22;19889;52.546;13.348;2023-07-02T04:13:39;19.70;99.90
16523;DHT22;19889;52.546;13.348;2023-07-02T04:16:06;19.70;99.90
16523;DHT22;19889;52.546;13.348;2023-07-02T04:18:33;19.70;99.90
16523;DHT22;19889;52.546;13.348;2023-07-02T04:21:01;19.70;99.90
16523;DHT22;19889;52.546;13.348;2023-07-02T04:23:28;19.70;99.90
16523;DHT22;19889;52.546;13.348;2023-07-02T04:25:55;19.70;99.90
16523;DHT22;19889;52.546;13.348;2023-07-02T04:28:22;19.70;99.90
16523;DHT22;19889;52.546;13.348;2023-07-02T04:30:50;19.70;99.90
16523;DHT22;19889;52.546;13.348;2023-07-02T04:33:18;19.60;99.90
16523;DHT22;19889;52.546;13.348;2023-07-02T04:35:46;19.70;99.90
16523;DHT22;19889;52.546;13.348;2023-07-02T04:38:13;19.70;99.90
16523;DHT22;19889;52.546;13.348;2023-07-02T04:40:40;19.70;99.90
16523;DHT22;19889;52.546;13.348;2023-07-02T04:43:10;19.70;99.90
16523;DHT22;19889;52.546;13.348;2023-07-02T04:48:07;19.60;99.90
16523;DHT22;19889;52.546;13.348;2023-07-02T04:50:34;19.60;99.90
16523;DHT22;19889;52.546;13.348;2023-07-02T04:53:01;19.60;99.90
16523;DHT22;19889;52.546;13.348;2023-07-02T04:55:28;19.60;99.90
16523;DHT22;19889;52.546;13.348;2023-07-02T04:57:55;19.60;99.90
16523;DHT22;19889;52.546;13.348;2023-07-02T05:00:22;19.60;99.90
16523;DHT22;19889;52.546;13.348;2023-07-02T05:02:49;19.60;99.90
16523;DHT22;19889;52.546;13.348;2023-07-02T05:05:17;19.60;99.90
16523;DHT22;19889;52.546;13.348;2023-07-02T05:07:44;19.60;99.90
16523;DHT22;19889;52.546;13.348;2023-07-02T05:10:11;19.70;99.90
16523;DHT22;19889;52.546;13.348;2023-07-02T05:12:38;19.70;99.90
16523;DHT22;19889;52.546;13.348;2023-07-02T05:15:06;19.90;99.90
16523;DHT22;19889;52.546;13.348;2023-07-02T05:17:33;19.70;99.90
16523;DHT22;19889;52.546;13.348;2023-07-02T05:20:02;19.70;99.90
16523;DHT22;19889;52.546;13.348;2023-07-02T05:22:31;19.70;99.90
16523;DHT22;19889;52.546;13.348;2023-07-02T05:24:58;19.70;99.90
16523;DHT22;19889;52.546;13.348;2023-07-02T05:27:25;19.70;99.90
16523;DHT22;19889;52.546;13.348;2023-07-02T05:29:52;19.70;99.90
16523;DHT22;19889;52.546;13.348;2023-07-02T05:32:19;19.70;99.90
16523;DHT22;19889;52.546;13.348;2023-07-02T05:34:46;19.70;99.90
16523;DHT22;19889;52.546;13.348;2023-07-02T05:37:13;19.70;99.90
16523;DHT22;19889;52.546;13.348;2023-07-02T05:39:41;19.70;99.90
16523;DHT22;19889;52.546;13.348;2023-07-02T05:42:08;19.70;99.90
16523;DHT22;19889;52.546;13.348;2023-07-02T05:44:35;19.70;99.90
16523;DHT22;19889;52.546;13.348;2023-07-02T05:47:02;19.70;99.90
16523;DHT22;19889;52.546;13.348;2023-07-02T05:49:29;19.70;99.90
16523;DHT22;19889;52.546;13.348;2023-07-02T05:51:56;19.70;99.90
16523;DHT22;19889;52.546;13.348;2023-07-02T05:54:23;19.80;99.90
16523;DHT22;19889;52.546;13.348;2023-07-02T05:56:51;19.80;99.90
16523;DHT22;19889;52.546;13.348;2023-07-02T05:59:18;19.80;99.90
16523;DHT22;19889;52.546;13.348;2023-07-02T06:01:45;20.40;99.90
16523;DHT22;19889;52.546;13.348;2023-07-02T06:04:12;19.90;99.90
16523;DHT22;19889;52.546;13.348;2023-07-02T06:06:39;19.90;99.90
16523;DHT22;19889;52.546;13.348;2023-07-02T06:09:06;19.90;99.90
16523;DHT22;19889;52.546;13.348;2023-07-02T06:11:33;19.90;99.90
16523;DHT22;19889;52.546;13.348;2023-07-02T06:14:01;20.00;99.90
16523;DHT22;19889;52.546;13.348;2023-07-02T06:16:28;20.00;99.90
16523;DHT22;19889;52.546;13.348;2023-07-02T06:18:55;20.00;99.90
16523;DHT22;19889;52.546;13.348;2023-07-02T06:21:22;20.60;99.90
16523;DHT22;19889;52.546;13.348;2023-07-02T06:23:55;20.00;99.90
16523;DHT22;19889;52.546;13.348;2023-07-02T06:26:22;20.10;99.90
16523;DHT22;19889;52.546;13.348;2023-07-02T06:28:49;20.10;99.90
16523;DHT22;19889;52.546;13.348;2023-07-02T06:31:17;20.10;99.90
16523;DHT22;19889;52.546;13.348;2023-07-02T06:33:44;20.10;99.90
16523;DHT22;19889;52.546;13.348;2023-07-02T06:36:12;20.10;99.90
16523;DHT22;19889;52.546;13.348;2023-07-02T06:38:40;20.10;99.90
16523;DHT22;19889;52.546;13.348;2023-07-02T06:41:07;20.10;99.90
16523;DHT22;19889;52.546;13.348;2023-07-02T06:43:34;20.20;99.90
16523;DHT22;19889;52.546;13.348;2023-07-02T06:46:01;20.20;99.90
16523;DHT22;19889;52.546;13.348;2023-07-02T06:48:29;20.30;99.90
16523;DHT22;19889;52.546;13.348;2023-07-02T06:50:56;20.30;99.90
16523;DHT22;19889;52.546;13.348;2023-07-02T06:53:23;20.30;99.90
16523;DHT22;19889;52.546;13.348;2023-07-02T06:55:50;20.30;99.90
16523;DHT22;19889;52.546;13.348;2023-07-02T06:58:17;20.40;99.90
16523;DHT22;19889;52.546;13.348;2023-07-02T07:00:45;20.40;99.90
16523;DHT22;19889;52.546;13.348;2023-07-02T07:03:12;20.30;99.90
16523;DHT22;19889;52.546;13.348;2023-07-02T07:05:40;20.40;99.90
16523;DHT22;19889;52.546;13.348;2023-07-02T07:08:08;20.40;99.90
16523;DHT22;19889;52.546;13.348;2023-07-02T07:10:34;20.40;99.90
16523;DHT22;19889;52.546;13.348;2023-07-02T07:13:02;20.40;99.90
16523;DHT22;19889;52.546;13.348;2023-07-02T07:15:32;20.40;99.90
16523;DHT22;19889;52.546;13.348;2023-07-02T07:18:00;20.40;99.90
16523;DHT22;19889;52.546;13.348;2023-07-02T07:20:27;20.40;99.90
16523;DHT22;19889;52.546;13.348;2023-07-02T07:22:55;20.40;99.90
16523;DHT22;19889;52.546;13.348;2023-07-02T07:25:22;20.40;99.90
16523;DHT22;19889;52.546;13.348;2023-07-02T07:27:51;20.40;99.90
16523;DHT22;19889;52.546;13.348;2023-07-02T07:30:18;20.40;99.90
16523;DHT22;19889;52.546;13.348;2023-07-02T07:32:49;20.40;99.90
16523;DHT22;19889;52.546;13.348;2023-07-02T07:35:16;20.40;99.90
16523;DHT22;19889;52.546;13.348;2023-07-02T07:37:44;20.40;99.90
16523;DHT22;19889;52.546;13.348;2023-07-02T07:40:13;20.50;99.90
16523;DHT22;19889;52.546;13.348;2023-07-02T07:42:40;20.50;99.90
16523;DHT22;19889;52.546;13.348;2023-07-02T07:45:08;20.50;99.90
16523;DHT22;19889;52.546;13.348;2023-07-02T07:47:36;20.50;99.90
16523;DHT22;19889;52.546;13.348;2023-07-02T07:50:03;20.40;99.90
16523;DHT22;19889;52.546;13.348;2023-07-02T07:52:36;20.50;99.90
16523;DHT22;19889;52.546;13.348;2023-07-02T07:55:04;20.40;99.90
16523;DHT22;19889;52.546;13.348;2023-07-02T07:57:33;20.40;99.90
16523;DHT22;19889;52.546;13.348;2023-07-02T08:00:00;20.40;99.90
16523;DHT22;19889;52.546;13.348;2023-07-02T08:02:42;20.40;99.90
16523;DHT22;19889;52.546;13.348;2023-07-02T08:05:09;20.40;99.90
16523;DHT22;19889;52.546;13.348;2023-07-02T08:07:36;20.40;99.90
16523;DHT22;19889;52.546;13.348;2023-07-02T08:10:03;20.40;99.90
16523;DHT22;19889;52.546;13.348;2023-07-02T08:12:32;20.40;99.90
16523;DHT22;19889;52.546;13.348;2023-07-02T08:14:59;20.40;99.90
16523;DHT22;19889;52.546;13.348;2023-07-02T08:17:26;20.30;99.90
16523;DHT22;19889;52.546;13.348;2023-07-02T08:19:53;20.40;99.90
16523;DHT22;19889;52.546;13.348;2023-07-02T08:22:20;20.30;99.90
16523;DHT22;19889;52.546;13.348;2023-07-02T08:24:47;20.30;99.90
16523;DHT22;19889;52.546;13.348;2023-07-02T08:27:15;20.40;99.90
16523;DHT22;19889;52.546;13.348;2023-07-02T08:29:46;20.40;99.90
16523;DHT22;19889;52.546;13.348;2023-07-02T08:32:13;20.40;99.90
16523;DHT22;19889;52.546;13.348;2023-07-02T08:34:41;20.30;99.90
16523;DHT22;19889;52.546;13.348;2023-07-02T08:37:08;20.40;99.90
16523;DHT22;19889;52.546;13.348;2023-07-02T08:39:35;20.40;99.90
16523;DHT22;19889;52.546;13.348;2023-07-02T08:42:03;20.30;99.90
16523;DHT22;19889;52.546;13.348;2023-07-02T08:44:30;20.40;99.90
16523;DHT22;19889;52.546;13.348;2023-07-02T08:46:59;20.40;99.90
16523;DHT22;19889;52.546;13.348;2023-07-02T08:49:26;20.30;99.90
16523;DHT22;19889;52.546;13.348;2023-07-02T08:51:53;20.30;99.90
16523;DHT22;19889;52.546;13.348;2023-07-02T08:54:20;20.30;99.90
16523;DHT22;19889;52.546;13.348;2023-07-02T08:56:47;20.30;99.90
16523;DHT22;19889;52.546;13.348;2023-07-02T08:59:14;20.40;99.90
16523;DHT22;19889;52.546;13.348;2023-07-02T09:01:45;20.30;99.90
16523;DHT22;19889;52.546;13.348;2023-07-02T09:04:18;20.40;99.90
16523;DHT22;19889;52.546;13.348;2023-07-02T09:06:45;20.40;99.90
16523;DHT22;19889;52.546;13.348;2023-07-02T09:09:12;20.40;99.90
16523;DHT22;19889;52.546;13.348;2023-07-02T09:11:49;20.40;99.90
16523;DHT22;19889;52.546;13.348;2023-07-02T09:14:27;20.40;99.90
16523;DHT22;19889;52.546;13.348;2023-07-02T09:17:08;20.40;99.90
16523;DHT22;19889;52.546;13.348;2023-07-02T09:19:50;20.50;99.90
16523;DHT22;19889;52.546;13.348;2023-07-02T09:22:17;20.50;99.90
16523;DHT22;19889;52.546;13.348;2023-07-02T09:24:51;20.50;99.90
16523;DHT22;19889;52.546;13.348;2023-07-02T09:27:18;20.50;99.90
16523;DHT22;19889;52.546;13.348;2023-07-02T09:29:50;20.60;99.90
16523;DHT22;19889;52.546;13.348;2023-07-02T09:32:24;20.60;99.90
16523;DHT22;19889;52.546;13.348;2023-07-02T09:34:54;20.60;99.90
16523;DHT22;19889;52.546;13.348;2023-07-02T09:37:21;20.60;99.90
16523;DHT22;19889;52.546;13.348;2023-07-02T09:39:50;20.60;99.90
16523;DHT22;19889;52.546;13.348;2023-07-02T09:42:18;20.60;99.90
16523;DHT22;19889;52.546;13.348;2023-07-02T09:44:46;20.70;99.90
16523;DHT22;19889;52.546;13.348;2023-07-02T09:47:15;20.70;99.90
16523;DHT22;19889;52.546;13.348;2023-07-02T09:49:49;20.70;99.90
16523;DHT22;19889;52.546;13.348;2023-07-02T09:52:18;20.80;99.90
16523;DHT22;19889;52.546;13.348;2023-07-02T09:54:45;20.80;99.90
16523;DHT22;19889;52.546;13.348;2023-07-02T09:57:12;20.80;99.90
16523;DHT22;19889;52.546;13.348;2023-07-02T09:59:40;20.90;99.90
16523;DHT22;19889;52.546;13.348;2023-07-02T10:02:09;20.90;99.90
16523;DHT22;19889;52.546;13.348;2023-07-02T10:04:40;20.90;99.90
16523;DHT22;19889;52.546;13.348;2023-07-02T10:07:07;20.90;99.90
16523;DHT22;19889;52.546;13.348;2023-07-02T10:09:37;20.90;99.90
16523;DHT22;19889;52.546;13.348;2023-07-02T10:12:18;20.90;99.90
16523;DHT22;19889;52.546;13.348;2023-07-02T10:14:47;20.90;99.90
16523;DHT22;19889;52.546;13.348;2023-07-02T10:17:24;21.00;99.90
16523;DHT22;19889;52.546;13.348;2023-07-02T10:19:52;21.10;99.90
16523;DHT22;19889;52.546;13.348;2023-07-02T10:22:19;21.10;99.90
16523;DHT22;19889;52.546;13.348;2023-07-02T10:24:55;21.00;99.90
16523;DHT22;19889;52.546;13.348;2023-07-02T10:27:35;21.10;99.90
16523;DHT22;19889;52.546;13.348;2023-07-02T10:30:03;21.10;99.90
16523;DHT22;19889;52.546;13.348;2023-07-02T10:32:32;21.10;99.90
16523;DHT22;19889;52.546;13.348;2023-07-02T10:35:00;21.10;99.90
16523;DHT22;19889;52.546;13.348;2023-07-02T10:37:35;21.10;99.90
16523;DHT22;19889;52.546;13.348;2023-07-02T10:40:10;21.10;99.90
16523;DHT22;19889;52.546;13.348;2023-07-02T10:42:48;21.10;99.90
16523;DHT22;19889;52.546;13.348;2023-07-02T10:45:15;21.10;99.90
16523;DHT22;19889;52.546;13.348;2023-07-02T10:47:42;21.20;99.90
16523;DHT22;19889;52.546;13.348;2023-07-02T10:50:20;21.20;99.90
16523;DHT22;19889;52.546;13.348;2023-07-02T10:52:48;21.10;99.90
16523;DHT22;19889;52.546;13.348;2023-07-02T10:55:21;21.20;99.90
16523;DHT22;19889;52.546;13.348;2023-07-02T10:57:49;21.20;99.90
16523;DHT22;19889;52.546;13.348;2023-07-02T11:00:17;21.20;99.90
16523;DHT22;19889;52.546;13.348;2023-07-02T11:02:44;21.20;99.90
16523;DHT22;19889;52.546;13.348;2023-07-02T11:05:11;21.20;99.90
16523;DHT22;19889;52.546;13.348;2023-07-02T11:07:39;21.20;99.90
16523;DHT22;19889;52.546;13.348;2023-07-02T11:10:07;21.20;99.90
16523;DHT22;19889;52.546;13.348;2023-07-02T11:12:36;21.20;99.90
16523;DHT22;19889;52.546;13.348;2023-07-02T11:15:10;21.10;99.90
16523;DHT22;19889;52.546;13.348;2023-07-02T11:17:37;21.10;99.90
16523;DHT22;19889;52.546;13.348;2023-07-02T11:20:07;21.10;99.90
16523;DHT22;19889;52.546;13.348;2023-07-02T11:22:35;21.10;99.90
16523;DHT22;19889;52.546;13.348;2023-07-02T11:25:12;21.10;99.90
16523;DHT22;19889;52.546;13.348;2023-07-02T11:27:40;21.20;99.90
16523;DHT22;19889;52.546;13.348;2023-07-02T11:30:08;21.20;99.90
16523;DHT22;19889;52.546;13.348;2023-07-02T11:32:46;21.20;99.90
16523;DHT22;19889;52.546;13.348;2023-07-02T11:35:14;21.00;99.90
16523;DHT22;19889;52.546;13.348;2023-07-02T11:37:41;21.20;99.90
16523;DHT22;19889;52.546;13.348;2023-07-02T11:40:09;21.20;99.90
16523;DHT22;19889;52.546;13.348;2023-07-02T11:42:36;21.20;99.90
16523;DHT22;19889;52.546;13.348;2023-07-02T11:45:06;21.20;99.90
16523;DHT22;19889;52.546;13.348;2023-07-02T11:47:33;21.20;99.90
16523;DHT22;19889;52.546;13.348;2023-07-02T11:50:00;21.20;99.90
16523;DHT22;19889;52.546;13.348;2023-07-02T11:52:27;21.20;99.90
16523;DHT22;19889;52.546;13.348;2023-07-02T11:54:54;21.30;99.90
16523;DHT22;19889;52.546;13.348;2023-07-02T11:57:21;21.30;99.90
16523;DHT22;19889;52.546;13.348;2023-07-02T11:59:48;21.30;99.90
16523;DHT22;19889;52.546;13.348;2023-07-02T12:02:17;21.40;99.90
16523;DHT22;19889;52.546;13.348;2023-07-02T12:04:44;21.50;99.90
16523;DHT22;19889;52.546;13.348;2023-07-02T12:07:11;21.50;99.90
16523;DHT22;19889;52.546;13.348;2023-07-02T12:09:39;21.50;99.90
16523;DHT22;19889;52.546;13.348;2023-07-02T12:12:07;21.50;99.90
16523;DHT22;19889;52.546;13.348;2023-07-02T12:14:34;21.50;99.90
16523;DHT22;19889;52.546;13.348;2023-07-02T12:17:01;21.50;99.90
16523;DHT22;19889;52.546;13.348;2023-07-02T12:19:29;21.50;99.90
16523;DHT22;19889;52.546;13.348;2023-07-02T12:21:56;21.60;99.90
16523;DHT22;19889;52.546;13.348;2023-07-02T12:24:23;21.60;99.90
16523;DHT22;19889;52.546;13.348;2023-07-02T12:26:50;21.60;99.90
16523;DHT22;19889;52.546;13.348;2023-07-02T12:29:17;21.60;99.90
16523;DHT22;19889;52.546;13.348;2023-07-02T12:31:44;21.60;99.90
16523;DHT22;19889;52.546;13.348;2023-07-02T12:34:11;21.70;99.90
16523;DHT22;19889;52.546;13.348;2023-07-02T12:36:40;21.70;99.90
16523;DHT22;19889;52.546;13.348;2023-07-02T12:39:06;21.60;99.90
16523;DHT22;19889;52.546;13.348;2023-07-02T12:41:34;21.70;99.90
16523;DHT22;19889;52.546;13.348;2023-07-02T12:44:01;21.70;99.90
16523;DHT22;19889;52.546;13.348;2023-07-02T12:46:28;21.70;99.90
16523;DHT22;19889;52.546;13.348;2023-07-02T12:48:54;21.80;99.90
16523;DHT22;19889;52.546;13.348;2023-07-02T12:51:21;21.70;99.90
16523;DHT22;19889;52.546;13.348;2023-07-02T12:53:50;21.80;99.90
16523;DHT22;19889;52.546;13.348;2023-07-02T12:56:17;21.80;99.90
16523;DHT22;19889;52.546;13.348;2023-07-02T12:58:44;21.80;99.90
16523;DHT22;19889;52.546;13.348;2023-07-02T13:01:11;21.80;99.90
16523;DHT22;19889;52.546;13.348;2023-07-02T13:03:38;21.80;99.90
16523;DHT22;19889;52.546;13.348;2023-07-02T13:06:05;21.80;99.90
16523;DHT22;19889;52.546;13.348;2023-07-02T13:08:32;21.80;99.90
16523;DHT22;19889;52.546;13.348;2023-07-02T13:11:00;21.80;99.90
16523;DHT22;19889;52.546;13.348;2023-07-02T13:13:27;21.80;99.90
16523;DHT22;19889;52.546;13.348;2023-07-02T13:15:54;21.80;99.90
16523;DHT22;19889;52.546;13.348;2023-07-02T13:18:21;21.80;99.90
16523;DHT22;19889;52.546;13.348;2023-07-02T13:20:48;21.80;99.90
16523;DHT22;19889;52.546;13.348;2023-07-02T13:23:15;21.80;99.90
16523;DHT22;19889;52.546;13.348;2023-07-02T13:25:42;23.20;99.90
16523;DHT22;19889;52.546;13.348;2023-07-02T13:28:10;21.80;99.70
16523;DHT22;19889;52.546;13.348;2023-07-02T13:30:37;21.90;99.70
16523;DHT22;19889;52.546;13.348;2023-07-02T13:33:04;21.90;99.50
16523;DHT22;19889;52.546;13.348;2023-07-02T13:35:31;21.90;99.20
16523;DHT22;19889;52.546;13.348;2023-07-02T13:37:58;21.90;98.90
16523;DHT22;19889;52.546;13.348;2023-07-02T13:40:26;21.90;98.70
16523;DHT22;19889;52.546;13.348;2023-07-02T13:42:53;21.90;98.70
16523;DHT22;19889;52.546;13.348;2023-07-02T13:45:22;21.90;98.10
16523;DHT22;19889;52.546;13.348;2023-07-02T13:47:49;21.90;97.90
16523;DHT22;19889;52.546;13.348;2023-07-02T13:50:16;21.90;97.90
16523;DHT22;19889;52.546;13.348;2023-07-02T13:52:44;22.00;98.00
16523;DHT22;19889;52.546;13.348;2023-07-02T13:55:12;21.90;98.50
16523;DHT22;19889;52.546;13.348;2023-07-02T13:57:39;22.00;98.10
16523;DHT22;19889;52.546;13.348;2023-07-02T14:00:08;22.00;97.90
16523;DHT22;19889;52.546;13.348;2023-07-02T14:02:35;22.00;97.80
16523;DHT22;19889;52.546;13.348;2023-07-02T14:05:03;22.00;97.60
16523;DHT22;19889;52.546;13.348;2023-07-02T14:07:30;22.00;97.50
16523;DHT22;19889;52.546;13.348;2023-07-02T14:09:57;22.00;97.50
16523;DHT22;19889;52.546;13.348;2023-07-02T14:12:24;22.00;97.60
16523;DHT22;19889;52.546;13.348;2023-07-02T14:14:51;22.00;97.80
16523;DHT22;19889;52.546;13.348;2023-07-02T14:17:19;22.00;97.90
16523;DHT22;19889;52.546;13.348;2023-07-02T14:19:46;22.00;97.80
16523;DHT22;19889;52.546;13.348;2023-07-02T14:22:13;22.00;97.90
16523;DHT22;19889;52.546;13.348;2023-07-02T14:24:40;22.10;97.70
16523;DHT22;19889;52.546;13.348;2023-07-02T14:27:07;22.10;97.00
16523;DHT22;19889;52.546;13.348;2023-07-02T14:29:34;22.10;96.60
16523;DHT22;19889;52.546;13.348;2023-07-02T14:32:01;22.10;96.50
16523;DHT22;19889;52.546;13.348;2023-07-02T14:34:30;22.20;96.40
16523;DHT22;19889;52.546;13.348;2023-07-02T14:36:57;22.10;96.60
16523;DHT22;19889;52.546;13.348;2023-07-02T14:39:24;22.20;96.20
16523;DHT22;19889;52.546;13.348;2023-07-02T14:41:52;22.20;96.10
16523;DHT22;19889;52.546;13.348;2023-07-02T14:44:19;22.20;95.90
16523;DHT22;19889;52.546;13.348;2023-07-02T14:46:46;22.20;95.50
16523;DHT22;19889;52.546;13.348;2023-07-02T14:49:13;22.20;95.20
16523;DHT22;19889;52.546;13.348;2023-07-02T14:51:41;22.20;95.10
16523;DHT22;19889;52.546;13.348;2023-07-02T14:54:09;22.20;95.10
16523;DHT22;19889;52.546;13.348;2023-07-02T14:56:36;22.20;95.50
16523;DHT22;19889;52.546;13.348;2023-07-02T14:59:03;22.20;95.20
16523;DHT22;19889;52.546;13.348;2023-07-02T15:01:32;22.20;95.20
16523;DHT22;19889;52.546;13.348;2023-07-02T15:03:59;22.20;95.30
16523;DHT22;19889;52.546;13.348;2023-07-02T15:06:26;22.20;95.00
16523;DHT22;19889;52.546;13.348;2023-07-02T15:08:54;22.20;94.70
16523;DHT22;19889;52.546;13.348;2023-07-02T15:11:21;22.20;94.50
16523;DHT22;19889;52.546;13.348;2023-07-02T15:13:48;22.20;94.40
16523;DHT22;19889;52.546;13.348;2023-07-02T15:16:15;22.20;94.20
16523;DHT22;19889;52.546;13.348;2023-07-02T15:18:44;22.20;93.90
16523;DHT22;19889;52.546;13.348;2023-07-02T15:21:11;22.20;93.90
16523;DHT22;19889;52.546;13.348;2023-07-02T15:23:39;22.60;94.10